createdAt,value
2018-10-06T00:00:29.944Z,96231.94
2018-10-06T00:02:57.987Z,96228.72
2018-10-06T00:19:00.832Z,96228.66
2018-10-06T00:21:29.033Z,96233.96
2018-10-06T00:23:58.207Z,96227.12
2018-10-06T00:26:26.548Z,96221.41
2018-10-06T00:28:57.321Z,96225.95
2018-10-06T00:31:25.420Z,96229.70
2018-10-06T00:33:53.533Z,96226.98
2018-10-06T00:36:21.956Z,96220.55
2018-10-06T00:38:50.012Z,96219.49
2018-10-06T00:41:19.311Z,96225.74
2018-10-06T00:43:47.235Z,96221.19
2018-10-06T00:46:15.319Z,96227.77
2018-10-06T00:48:43.391Z,96231.56
2018-10-06T00:57:52.026Z,96215.27
2018-10-06T01:00:21.417Z,96222.55
2018-10-06T01:02:49.452Z,96210.52
2018-10-06T01:05:17.972Z,96215.68
2018-10-06T01:07:46.141Z,96213.58
2018-10-06T01:10:14.807Z,96215.52
2018-10-06T01:12:43.496Z,96206.88
2018-10-06T01:15:11.543Z,96211.27
2018-10-06T01:17:40.018Z,96215.68
2018-10-06T01:20:08.075Z,96215.84
2018-10-06T01:22:36.191Z,96217.51
2018-10-06T01:25:04.379Z,96219.70
2018-10-06T01:27:32.399Z,96211.91
2018-10-06T01:30:00.551Z,96207.05
2018-10-06T01:32:28.520Z,96207.67
2018-10-06T01:34:56.431Z,96210.86
2018-10-06T01:37:24.377Z,96220.67
2018-10-06T01:39:52.483Z,96209.95
2018-10-06T01:42:20.451Z,96217.83
2018-10-06T01:44:48.548Z,96211.06
2018-10-06T01:47:16.534Z,96205.41
2018-10-06T01:49:44.559Z,96210.12
2018-10-06T01:52:12.676Z,96207.78
2018-10-06T01:54:40.869Z,96210.41
2018-10-06T01:57:08.832Z,96199.73
2018-10-06T01:59:36.754Z,96199.02
2018-10-06T02:02:04.814Z,96201.16
2018-10-06T02:04:32.778Z,96202.60
2018-10-06T02:07:00.734Z,96208.11
2018-10-06T02:09:28.700Z,96212.03
2018-10-06T02:11:56.645Z,96210.66
2018-10-06T02:14:24.539Z,96206.06
2018-10-06T02:16:52.522Z,96210.52
2018-10-06T02:19:20.445Z,96212.20
2018-10-06T02:21:48.767Z,96204.86
2018-10-06T02:24:16.697Z,96208.72
2018-10-06T02:26:44.754Z,96202.48
2018-10-06T02:29:12.772Z,96201.22
2018-10-06T02:31:40.755Z,96199.59
2018-10-06T02:34:08.717Z,96195.94
2018-10-06T02:36:36.875Z,96199.97
2018-10-06T02:39:05.916Z,96198.12
2018-10-06T02:41:33.947Z,96198.70
2018-10-06T02:44:01.941Z,96202.81
2018-10-06T02:46:30.280Z,96208.73
2018-10-06T02:48:58.341Z,96206.93
2018-10-06T02:51:26.272Z,96194.93
2018-10-06T02:53:54.193Z,96197.30
2018-10-06T02:56:22.212Z,96192.78
2018-10-06T02:58:50.142Z,96195.98
2018-10-06T03:01:18.151Z,96194.87
2018-10-06T03:03:46.154Z,96197.67
2018-10-06T03:06:14.043Z,96193.39
2018-10-06T03:08:42.234Z,96191.34
2018-10-06T03:11:10.150Z,96142.11
2018-10-06T03:13:38.203Z,96183.13
2018-10-06T03:16:06.162Z,96189.02
2018-10-06T03:18:34.876Z,96183.13
2018-10-06T03:21:02.917Z,96180.91
2018-10-06T03:23:30.882Z,96180.62
2018-10-06T03:25:58.942Z,96181.23
2018-10-06T03:28:26.984Z,96177.58
2018-10-06T03:30:55.097Z,96185.89
2018-10-06T03:33:23.170Z,96185.00
2018-10-06T03:35:51.174Z,96185.66
2018-10-06T03:38:19.877Z,96188.80
2018-10-06T03:40:47.858Z,96189.77
2018-10-06T03:43:16.173Z,96185.90
2018-10-06T03:45:44.065Z,96177.13
2018-10-06T03:48:12.016Z,96189.39
2018-10-06T03:50:40.117Z,96184.73
2018-10-06T03:53:08.182Z,96183.76
2018-10-06T03:55:36.171Z,96182.41
2018-10-06T03:58:04.174Z,96182.75
2018-10-06T04:00:32.441Z,96176.11
2018-10-06T04:03:00.430Z,96177.66
2018-10-06T04:05:28.791Z,96186.89
2018-10-06T04:07:56.813Z,96183.79
2018-10-06T04:10:24.935Z,96179.74
2018-10-06T04:12:53.062Z,96174.00
2018-10-06T04:15:21.142Z,96173.00
2018-10-06T04:17:49.091Z,96173.20
2018-10-06T04:20:17.233Z,96177.82
2018-10-06T04:22:45.195Z,96170.78
2018-10-06T04:25:13.396Z,96171.41
2018-10-06T04:27:41.468Z,96177.41
2018-10-06T04:30:10.807Z,96166.26
2018-10-06T04:32:38.800Z,96171.02
2018-10-06T04:35:06.856Z,96175.46
2018-10-06T04:37:35.147Z,96162.67
2018-10-06T04:40:03.513Z,96165.50
2018-10-06T04:42:31.491Z,96169.30
2018-10-06T04:44:59.483Z,96158.36
2018-10-06T04:47:27.536Z,96161.57
2018-10-06T04:49:55.528Z,96168.05
2018-10-06T04:52:23.470Z,96168.31
2018-10-06T04:54:51.439Z,96163.86
2018-10-06T04:57:19.584Z,96160.45
2018-10-06T04:59:47.578Z,96173.81
2018-10-06T05:02:15.520Z,96174.11
2018-10-06T05:04:43.496Z,96174.89
2018-10-06T05:07:11.514Z,96182.78
2018-10-06T05:09:39.490Z,96175.25
2018-10-06T05:12:08.037Z,96177.32
2018-10-06T05:14:36.170Z,96177.73
2018-10-06T05:17:04.136Z,96180.55
2018-10-06T05:19:32.191Z,96184.78
2018-10-06T05:22:00.794Z,96176.38
2018-10-06T05:24:28.757Z,96179.98
2018-10-06T05:26:56.699Z,96188.72
2018-10-06T05:29:24.695Z,96180.09
2018-10-06T05:31:52.647Z,96185.60
2018-10-06T05:34:20.800Z,96177.69
2018-10-06T05:36:48.799Z,96178.45
2018-10-06T05:39:16.805Z,96186.30
2018-10-06T05:41:44.854Z,96187.58
2018-10-06T05:44:13.338Z,96175.44
2018-10-06T05:46:42.541Z,96179.45
2018-10-06T05:49:10.850Z,96180.38
2018-10-06T05:51:38.844Z,96178.69
2018-10-06T05:54:06.883Z,96182.22
2018-10-06T05:56:35.120Z,96182.50
2018-10-06T05:59:03.834Z,96173.98
2018-10-06T06:01:31.874Z,96185.53
2018-10-06T06:04:00.106Z,96186.88
2018-10-06T06:06:28.245Z,96188.38
2018-10-06T06:08:56.286Z,96189.59
2018-10-06T06:11:24.251Z,96190.61
2018-10-06T06:13:52.348Z,96185.55
2018-10-06T06:16:20.304Z,96195.01
2018-10-06T06:18:48.624Z,96193.70
2018-10-06T06:21:16.738Z,96199.48
2018-10-06T06:23:45.341Z,96204.04
2018-10-06T06:26:13.928Z,96205.02
2018-10-06T06:28:41.839Z,96202.30
2018-10-06T06:31:09.997Z,96208.55
2018-10-06T06:33:38.018Z,96209.61
2018-10-06T06:36:06.253Z,96207.22
2018-10-06T06:38:34.476Z,96206.95
2018-10-06T06:41:02.467Z,96214.27
2018-10-06T06:43:30.599Z,96209.86
2018-10-06T06:45:58.972Z,96202.77
2018-10-06T06:48:33.422Z,96203.92
2018-10-06T06:51:01.415Z,96208.82
2018-10-06T06:53:29.391Z,96201.09
2018-10-06T06:55:57.368Z,96199.30
2018-10-06T06:58:25.414Z,96208.45
2018-10-06T07:00:53.394Z,96198.33
2018-10-06T07:03:21.571Z,96202.12
2018-10-06T07:05:49.611Z,96195.41
2018-10-06T07:08:17.677Z,96199.28
2018-10-06T07:10:45.715Z,96195.71
2018-10-06T07:13:13.707Z,96192.06
2018-10-06T07:15:41.998Z,96200.76
2018-10-06T07:18:10.082Z,96191.58
2018-10-06T07:20:38.103Z,96195.35
2018-10-06T07:23:06.196Z,96186.52
2018-10-06T07:25:34.703Z,96196.14
2018-10-06T07:28:02.885Z,96192.89
2018-10-06T07:30:31.287Z,96193.67
2018-10-06T07:32:59.342Z,96187.39
2018-10-06T07:35:27.817Z,96186.33
2018-10-06T07:37:55.843Z,96184.49
2018-10-06T07:40:23.821Z,96179.20
2018-10-06T07:42:51.858Z,96188.09
2018-10-06T07:45:19.922Z,96115.38
2018-10-06T07:47:48.180Z,96185.08
2018-10-06T07:50:16.097Z,96186.88
2018-10-06T07:52:44.172Z,96184.78
2018-10-06T07:55:13.753Z,96157.75
2018-10-06T07:57:48.287Z,96183.67
2018-10-06T08:00:16.277Z,96181.03
2018-10-06T08:02:44.270Z,96171.70
2018-10-06T08:05:12.215Z,96176.33
2018-10-06T08:07:40.245Z,96174.13
2018-10-06T08:10:08.302Z,96172.12
2018-10-06T08:12:36.290Z,96165.67
2018-10-06T08:15:04.451Z,96167.61
2018-10-06T08:17:32.584Z,96159.69
2018-10-06T08:20:00.477Z,96157.05
2018-10-06T08:22:28.591Z,96161.02
2018-10-06T08:24:56.588Z,96152.02
2018-10-06T08:27:24.678Z,96148.26
2018-10-06T08:29:52.627Z,96134.78
2018-10-06T08:32:20.591Z,96144.13
2018-10-06T08:34:48.648Z,96140.36
2018-10-06T08:37:18.993Z,96135.53
2018-10-06T08:39:47.011Z,96131.48
2018-10-06T08:42:15.191Z,96126.07
2018-10-06T08:44:43.159Z,96123.82
2018-10-06T08:47:11.268Z,96125.22
2018-10-06T08:49:39.391Z,96116.44
2018-10-06T08:52:07.414Z,96112.93
2018-10-06T08:54:35.383Z,96110.47
2018-10-06T08:57:03.488Z,96095.92
2018-10-06T08:59:31.511Z,96095.95
2018-10-06T09:01:59.705Z,96085.59
2018-10-06T09:04:27.789Z,96094.54
2018-10-06T09:06:55.713Z,96089.80
2018-10-06T09:09:23.756Z,96089.71
2018-10-06T09:11:51.939Z,96077.02
2018-10-06T09:14:20.236Z,96075.58
2018-10-06T09:16:48.232Z,96070.66
2018-10-06T09:19:16.167Z,96070.56
2018-10-06T09:21:44.156Z,96072.88
2018-10-06T09:24:12.115Z,96065.20
2018-10-06T09:26:40.315Z,96063.09
2018-10-06T09:29:08.787Z,96062.17
2018-10-06T09:31:36.940Z,96065.85
2018-10-06T09:34:05.438Z,96056.09
2018-10-06T09:36:33.466Z,96059.62
2018-10-06T09:39:01.535Z,96062.22
2018-10-06T09:41:29.568Z,96042.59
2018-10-06T09:43:58.026Z,96045.83
2018-10-06T09:46:25.973Z,96042.55
2018-10-06T09:48:53.888Z,96031.16
2018-10-06T09:51:21.818Z,96032.19
2018-10-06T09:53:49.840Z,96021.34
2018-10-06T09:56:17.825Z,96021.32
2018-10-06T09:58:45.826Z,96015.45
2018-10-06T10:01:19.353Z,96016.34
2018-10-06T10:03:52.898Z,96007.14
2018-10-06T10:06:21.162Z,96012.05
2018-10-06T10:08:49.217Z,96002.02
2018-10-06T10:11:17.902Z,96007.66
2018-10-06T10:13:46.513Z,96005.66
2018-10-06T10:16:14.500Z,95998.12
2018-10-06T10:18:43.035Z,95997.41
2018-10-06T10:21:10.988Z,95985.70
2018-10-06T10:23:38.983Z,95981.97
2018-10-06T10:26:07.118Z,95976.00
2018-10-06T10:28:35.201Z,95959.94
2018-10-06T10:31:03.324Z,95961.71
2018-10-06T10:33:32.004Z,95966.55
2018-10-06T10:35:59.999Z,95958.62
2018-10-06T10:38:28.022Z,95954.37
2018-10-06T10:40:56.249Z,95941.94
2018-10-06T10:43:24.419Z,95941.41
2018-10-06T10:45:52.772Z,95926.29
2018-10-06T10:48:20.957Z,95931.61
2018-10-06T10:50:49.205Z,95921.30
2018-10-06T10:53:23.659Z,95912.39
2018-10-06T10:55:51.674Z,95905.23
2018-10-06T10:58:19.826Z,95915.95
2018-10-06T11:00:48.398Z,95907.87
2018-10-06T11:03:16.394Z,95899.28
2018-10-06T11:05:44.409Z,95896.33
2018-10-06T11:08:12.404Z,95887.21
2018-10-06T11:10:40.443Z,95891.97
2018-10-06T11:13:09.549Z,95890.21
2018-10-06T11:15:38.078Z,95890.37
2018-10-06T11:18:05.961Z,95882.27
2018-10-06T11:20:34.734Z,95878.35
2018-10-06T11:23:02.927Z,95863.53
2018-10-06T11:25:31.379Z,95863.16
2018-10-06T11:27:59.494Z,95857.61
2018-10-06T11:30:27.911Z,95852.45
2018-10-06T11:32:55.960Z,95845.66
2018-10-06T11:35:23.973Z,95847.22
2018-10-06T11:37:52.380Z,95843.50
2018-10-06T11:40:20.375Z,95838.78
2018-10-06T11:42:48.327Z,95827.59
2018-10-06T11:45:16.327Z,95826.74
2018-10-06T11:47:44.338Z,95815.15
2018-10-06T11:50:12.399Z,95818.41
2018-10-06T11:52:42.822Z,95812.84
2018-10-06T11:55:10.774Z,95813.09
2018-10-06T11:57:39.003Z,95813.64
2018-10-06T12:00:07.453Z,95804.73
2018-10-06T12:02:35.272Z,95789.50
2018-10-06T12:05:03.336Z,95791.14
2018-10-06T12:07:31.543Z,95789.22
2018-10-06T12:09:59.463Z,95786.36
2018-10-06T12:12:27.437Z,95783.84
2018-10-06T12:14:55.485Z,95778.98
2018-10-06T12:17:23.465Z,95780.36
2018-10-06T12:19:51.450Z,95779.60
2018-10-06T12:22:19.515Z,95777.13
2018-10-06T12:24:51.405Z,95772.86
2018-10-06T12:27:19.425Z,95759.81
2018-10-06T12:29:47.540Z,95767.21
2018-10-06T12:32:16.672Z,95762.95
2018-10-06T12:34:44.769Z,95761.59
2018-10-06T12:37:15.762Z,95758.72
2018-10-06T12:39:44.634Z,95757.95
2018-10-06T12:42:15.149Z,95745.69
2018-10-06T12:44:44.064Z,95752.33
2018-10-06T12:47:15.276Z,95747.70
2018-10-06T12:49:43.414Z,95736.43
2018-10-06T12:52:11.466Z,95536.80
2018-10-06T12:54:39.438Z,95733.55
2018-10-06T12:57:07.450Z,95732.92
2018-10-06T12:59:35.819Z,95732.67
2018-10-06T13:02:03.808Z,95724.92
2018-10-06T13:04:31.866Z,95728.06
2018-10-06T13:06:59.994Z,95718.92
2018-10-06T13:09:27.985Z,95716.43
2018-10-06T13:11:56.012Z,95710.30
2018-10-06T13:14:24.026Z,95711.41
2018-10-06T13:16:51.981Z,95713.74
2018-10-06T13:19:26.322Z,95714.58
2018-10-06T13:21:54.397Z,95706.91
2018-10-06T13:24:22.357Z,95705.89
2018-10-06T13:26:50.546Z,95692.28
2018-10-06T13:29:18.576Z,95694.91
2018-10-06T13:31:46.576Z,95693.91
2018-10-06T13:34:14.613Z,95694.30
2018-10-06T13:36:42.599Z,95688.66
2018-10-06T13:39:11.017Z,95693.75
2018-10-06T13:41:39.027Z,95680.34
2018-10-06T13:44:07.004Z,95688.89
2018-10-06T13:46:35.067Z,95681.00
2018-10-06T13:49:03.016Z,95676.67
2018-10-06T13:51:33.511Z,95674.11
2018-10-06T13:54:01.480Z,95682.22
2018-10-06T13:56:30.101Z,95677.89
2018-10-06T13:58:58.259Z,95674.13
2018-10-06T14:01:26.365Z,95673.23
2018-10-06T14:03:54.323Z,95670.91
2018-10-06T14:06:22.326Z,95667.14
2018-10-06T14:08:50.488Z,95669.37
2018-10-06T14:11:18.676Z,95665.20
2018-10-06T14:13:46.880Z,95662.78
2018-10-06T14:16:14.966Z,95669.18
2018-10-06T14:18:42.989Z,95669.83
2018-10-06T14:21:11.128Z,95677.75
2018-10-06T14:23:39.206Z,95671.53
2018-10-06T14:26:07.635Z,95669.89
2018-10-06T14:28:35.849Z,95662.31
2018-10-06T14:31:04.993Z,95663.61
2018-10-06T14:33:33.006Z,95664.13
2018-10-06T14:36:00.985Z,95657.02
2018-10-06T14:38:29.203Z,95654.27
2018-10-06T14:40:57.754Z,95661.88
2018-10-06T14:43:26.461Z,95650.14
2018-10-06T14:45:54.508Z,95651.61
2018-10-06T14:48:22.464Z,95650.05
2018-10-06T14:50:50.513Z,95649.92
2018-10-06T14:53:19.122Z,95646.24
2018-10-06T14:55:47.135Z,95653.02
2018-10-06T14:58:15.126Z,95660.27
2018-10-06T15:00:43.087Z,95652.62
2018-10-06T15:03:11.164Z,95653.73
2018-10-06T15:05:39.075Z,95641.60
2018-10-06T15:08:07.075Z,95648.11
2018-10-06T15:10:35.182Z,95651.85
2018-10-06T15:13:03.131Z,95648.11
2018-10-06T15:15:31.587Z,95652.36
2018-10-06T15:17:59.520Z,95647.32
2018-10-06T15:20:28.053Z,95651.10
2018-10-06T15:22:56.136Z,95641.27
2018-10-06T15:25:24.176Z,95640.39
2018-10-06T15:27:52.272Z,95642.64
2018-10-06T15:30:21.371Z,95644.78
2018-10-06T15:32:49.349Z,95646.85
2018-10-06T15:35:17.474Z,95638.11
2018-10-06T15:37:45.513Z,95646.47
2018-10-06T15:40:13.470Z,95642.50
2018-10-06T15:42:41.475Z,95640.95
2018-10-06T15:45:09.885Z,95633.77
2018-10-06T15:47:37.909Z,95633.27
2018-10-06T15:50:06.029Z,95636.67
2018-10-06T15:52:34.169Z,95632.80
2018-10-06T15:55:02.144Z,95632.34
2018-10-06T15:57:30.322Z,95642.41
2018-10-06T15:59:58.303Z,95639.02
2018-10-06T16:02:26.410Z,95641.20
2018-10-06T16:04:54.389Z,95643.31
2018-10-06T16:07:22.509Z,95650.23
2018-10-06T16:09:50.535Z,95649.83
2018-10-06T16:12:18.475Z,95641.34
2018-10-06T16:14:46.517Z,95644.92
2018-10-06T16:17:14.430Z,95635.88
2018-10-06T16:19:42.378Z,95650.22
2018-10-06T16:22:10.398Z,95643.45
2018-10-06T16:24:38.447Z,95635.53
2018-10-06T16:27:06.524Z,95634.03
2018-10-06T16:29:34.534Z,95643.45
2018-10-06T16:32:02.533Z,95649.69
2018-10-06T16:34:30.525Z,95655.22
2018-10-06T16:36:58.502Z,95655.22
2018-10-06T16:39:26.358Z,95657.05
2018-10-06T16:41:54.438Z,95656.31
2018-10-06T16:44:22.457Z,95659.27
2018-10-06T16:46:50.402Z,95662.23
2018-10-06T16:49:19.015Z,95658.95
2018-10-06T16:51:47.383Z,95663.63
2018-10-06T16:54:15.283Z,95664.66
2018-10-06T16:56:43.567Z,95663.77
2018-10-06T16:59:17.685Z,95659.31
2018-10-06T17:01:46.993Z,95661.31
2018-10-06T17:04:19.118Z,95662.44
2018-10-06T17:06:47.443Z,95658.55
2018-10-06T17:09:19.511Z,95659.56
2018-10-06T17:11:47.976Z,95662.05
2018-10-06T17:14:16.256Z,95669.04
2018-10-06T17:16:47.011Z,95658.50
2018-10-06T17:19:15.254Z,95670.19
2018-10-06T17:21:43.377Z,95674.21
2018-10-06T17:24:11.492Z,95667.72
2018-10-06T17:26:39.353Z,95664.46
2018-10-06T17:29:08.553Z,95659.39
2018-10-06T17:31:36.607Z,95665.63
2018-10-06T17:34:04.578Z,95665.59
2018-10-06T17:36:32.791Z,95673.73
2018-10-06T17:39:00.878Z,95673.52
2018-10-06T17:41:29.262Z,95674.97
2018-10-06T17:43:57.410Z,95671.02
2018-10-06T17:46:25.507Z,95660.42
2018-10-06T17:48:53.505Z,95672.24
2018-10-06T17:51:21.384Z,95667.84
2018-10-06T17:53:49.403Z,95669.63
2018-10-06T17:56:17.414Z,95681.70
2018-10-06T17:58:45.450Z,95675.98
2018-10-06T18:01:13.418Z,95674.05
2018-10-06T18:03:41.515Z,95690.84
2018-10-06T18:06:12.556Z,95679.48
2018-10-06T18:08:40.803Z,95681.06
2018-10-06T18:11:08.983Z,95681.61
2018-10-06T18:13:37.085Z,95678.37
2018-10-06T18:16:05.046Z,95677.61
2018-10-06T18:18:33.270Z,95676.84
2018-10-06T18:21:01.279Z,95676.54
2018-10-06T18:23:29.352Z,95670.19
2018-10-06T18:25:57.426Z,95669.00
2018-10-06T18:28:25.335Z,95673.84
2018-10-06T18:30:53.394Z,95680.02
2018-10-06T18:33:21.526Z,95676.98
2018-10-06T18:35:49.534Z,95663.67
2018-10-06T18:38:17.684Z,95667.78
2018-10-06T18:40:45.685Z,95667.58
2018-10-06T18:43:13.585Z,95678.03
2018-10-06T18:45:41.462Z,95679.06
2018-10-06T18:48:09.536Z,95682.58
2018-10-06T18:50:37.866Z,95684.05
2018-10-06T18:53:05.945Z,95684.08
2018-10-06T18:55:34.059Z,95679.80
2018-10-06T18:58:02.037Z,95680.52
2018-10-06T19:00:30.051Z,95678.22
2018-10-06T19:02:58.035Z,95678.16
2018-10-06T19:05:27.788Z,95676.09
2018-10-06T19:07:55.819Z,95675.62
2018-10-06T19:10:23.844Z,95675.63
2018-10-06T19:12:51.783Z,95672.91
2018-10-06T19:15:21.048Z,95673.63
2018-10-06T19:17:48.991Z,95667.90
2018-10-06T19:20:16.976Z,95675.23
2018-10-06T19:22:45.062Z,95671.09
2018-10-06T19:25:13.089Z,95672.35
2018-10-06T19:27:41.130Z,95675.05
2018-10-06T19:30:09.177Z,95679.44
2018-10-06T19:32:37.375Z,95675.07
2018-10-06T19:35:05.509Z,95670.65
2018-10-06T19:37:33.600Z,95665.39
2018-10-06T19:40:01.766Z,95667.94
2018-10-06T19:42:29.914Z,95673.36
2018-10-06T19:44:57.808Z,95669.11
2018-10-06T19:47:25.761Z,95671.78
2018-10-06T19:49:53.722Z,95681.98
2018-10-06T19:52:21.658Z,95672.48
2018-10-06T19:54:49.764Z,95676.32
2018-10-06T19:57:17.681Z,95684.10
2018-10-06T19:59:45.741Z,95678.50
2018-10-06T20:02:13.837Z,95681.26
2018-10-06T20:04:41.810Z,95672.97
2018-10-06T20:07:10.413Z,95673.83
2018-10-06T20:09:38.543Z,95664.37
2018-10-06T20:12:07.810Z,95671.61
2018-10-06T20:14:35.716Z,95668.55
2018-10-06T20:17:03.890Z,95668.52
2018-10-06T20:19:37.220Z,95664.48
2018-10-06T20:22:07.801Z,95670.65
2018-10-06T20:24:36.101Z,95667.45
2018-10-06T20:27:04.432Z,95663.23
2018-10-06T20:29:32.474Z,95671.02
2018-10-06T20:32:00.513Z,95674.42
2018-10-06T20:34:29.773Z,95666.21
2018-10-06T20:36:58.117Z,95661.73
2018-10-06T20:39:26.155Z,95656.52
2018-10-06T20:41:54.187Z,95655.45
2018-10-06T20:44:22.925Z,95659.64
2018-10-06T20:46:51.027Z,95663.64
2018-10-06T20:49:19.135Z,95660.00
2018-10-06T20:51:47.865Z,95666.68
2018-10-06T20:54:16.426Z,95654.17
2018-10-06T20:56:44.962Z,95652.34
2018-10-06T20:59:13.374Z,95646.52
2018-10-06T21:01:41.325Z,95657.36
2018-10-06T21:04:09.655Z,95655.44
2018-10-06T21:06:37.586Z,95661.95
2018-10-06T21:09:08.682Z,95653.02
2018-10-06T21:11:37.574Z,95656.48
2018-10-06T21:14:05.493Z,95646.03
2018-10-06T21:16:33.423Z,95657.70
2018-10-06T21:19:01.474Z,95656.23
2018-10-06T21:21:30.606Z,95649.85
2018-10-06T21:23:58.555Z,95642.70
2018-10-06T21:26:26.737Z,95631.54
2018-10-06T21:28:54.777Z,95632.30
2018-10-06T21:31:22.749Z,95638.16
2018-10-06T21:33:50.881Z,95641.51
2018-10-06T21:36:18.810Z,95633.62
2018-10-06T21:38:46.719Z,95635.21
2018-10-06T21:41:14.766Z,95630.34
2018-10-06T21:43:42.682Z,95629.79
2018-10-06T21:46:10.759Z,95635.52
2018-10-06T21:48:38.684Z,95632.65
2018-10-06T21:51:06.996Z,95626.01
2018-10-06T21:53:34.984Z,95620.97
2018-10-06T21:56:03.264Z,95620.97
2018-10-06T21:58:31.360Z,95623.24
2018-10-06T22:01:04.788Z,95623.34
2018-10-06T22:03:33.009Z,95623.20
2018-10-06T22:06:00.919Z,95620.20
2018-10-06T22:08:29.258Z,95613.34
2018-10-06T22:10:57.263Z,95618.70
2018-10-06T22:13:25.174Z,95613.87
2018-10-06T22:15:53.141Z,95612.36
2018-10-06T22:18:21.355Z,95616.97
2018-10-06T22:20:49.322Z,95617.47
2018-10-06T22:23:17.478Z,95615.28
2018-10-06T22:25:45.905Z,95611.61
2018-10-06T22:28:13.955Z,95619.33
2018-10-06T22:30:41.919Z,95608.98
2018-10-06T22:33:10.227Z,95612.30
2018-10-06T22:35:38.203Z,95608.95
2018-10-06T22:38:06.244Z,95612.89
2018-10-06T22:40:34.570Z,95603.77
2018-10-06T22:43:02.508Z,95606.55
2018-10-06T22:45:30.719Z,95614.47
2018-10-06T22:47:58.790Z,95620.48
2018-10-06T22:50:26.836Z,95613.84
2018-10-06T22:52:54.814Z,95619.95
2018-10-06T22:55:22.805Z,95611.81
2018-10-06T22:57:50.888Z,95606.95
2018-10-06T23:00:18.930Z,95612.20
2018-10-06T23:02:46.899Z,95619.55
2018-10-06T23:05:14.797Z,95621.44
2018-10-06T23:07:42.910Z,95617.30
2018-10-06T23:10:11.134Z,95616.02
2018-10-06T23:12:39.103Z,95610.34
2018-10-06T23:15:07.158Z,95618.47
2018-10-06T23:17:35.250Z,95611.66
2018-10-06T23:20:03.304Z,95611.66
2018-10-06T23:22:31.245Z,95618.13
2018-10-06T23:24:59.307Z,95617.36
2018-10-06T23:27:27.317Z,95618.84
2018-10-06T23:29:55.206Z,95607.75
2018-10-06T23:32:23.535Z,95611.42
2018-10-06T23:34:51.442Z,95607.19
2018-10-06T23:37:19.446Z,95619.52
2018-10-06T23:39:47.393Z,95611.43
2018-10-06T23:42:15.302Z,95616.59
2018-10-06T23:44:43.247Z,95612.41
2018-10-06T23:47:11.232Z,95606.70
2018-10-06T23:49:39.227Z,95606.92
2018-10-06T23:52:07.282Z,95605.20
2018-10-06T23:54:35.238Z,95605.35
2018-10-06T23:57:03.207Z,95605.53
2018-10-06T23:59:31.278Z,95600.98
